Time;durP1;ratioP1;P1;durP2;ratioP2;P2;SDS_P1;SDS_P2;PMS_P1;PMS_P2;Temp;Humidity;BMP_temperature;BMP_pressure;BME280_temperature;BME280_humidity;BME280_pressure;Samples;Min_cycle;Max_cycle;Signal;HPM_P1;HPM_P2
2023/10/22 00:02:11;;;;;;;26.77;16.60;;;;;;;18.31;72.23;96971.22;5046587;28;20044;-82
2023/10/22 00:04:56;;;;;;;31.77;19.90;;;;;;;18.45;71.26;96974.66;5041559;28;20098;-81
2023/10/22 00:07:40;;;;;;;33.38;20.10;;;;;;;18.14;72.24;96980.56;5042552;28;20047;-82
2023/10/22 00:10:24;;;;;;;29.80;19.13;;;;;;;18.25;71.54;97003.19;5046787;28;20051;-81
2023/10/22 00:13:08;;;;;;;24.90;16.33;;;;;;;17.95;72.57;97009.84;5047340;28;20071;-81
2023/10/22 00:15:52;;;;;;;21.70;14.52;;;;;;;18.25;71.49;97003.19;5043137;28;20381;-82
2023/10/22 00:18:36;;;;;;;26.90;15.70;;;;;;;18.25;71.25;97013.03;5040692;28;20068;-82
2023/10/22 00:21:23;;;;;;;23.10;13.90;;;;;;;16.72;74.03;97024.63;5044559;28;20098;-81
2023/10/22 00:24:07;;;;;;;22.85;14.02;;;;;;;16.84;74.10;97029.50;5042605;28;20040;-81
2023/10/22 00:26:51;;;;;;;20.70;14.57;;;;;;;16.60;74.85;97027.69;5042011;28;20051;-82
2023/10/22 00:29:35;;;;;;;22.05;13.93;;;;;;;16.84;74.48;97026.84;5042121;28;20043;-81
2023/10/22 00:32:19;;;;;;;25.15;14.60;;;;;;;16.67;74.53;97033.41;5046348;28;20387;-80
2023/10/22 00:35:03;;;;;;;26.90;15.13;;;;;;;17.13;73.75;97039.22;5043288;28;20445;-80
2023/10/22 00:37:47;;;;;;;21.67;13.82;;;;;;;17.24;73.10;97037.22;5043123;28;20039;-82
2023/10/22 00:40:31;;;;;;;18.77;12.20;;;;;;;17.31;73.59;97042.16;5050906;28;20102;-80
2023/10/22 00:43:15;;;;;;;16.98;12.25;;;;;;;17.56;72.48;97040.97;5047773;28;20113;-82
2023/10/22 00:46:00;;;;;;;17.90;12.15;;;;;;;17.64;72.33;97036.88;5040492;28;20035;-82
2023/10/22 00:48:45;;;;;;;19.80;12.02;;;;;;;17.63;72.26;97043.25;5051733;28;20044;-80
2023/10/22 00:51:29;;;;;;;13.40;9.88;;;;;;;17.38;73.03;97058.50;5043132;28;20098;-81
2023/10/22 00:54:16;;;;;;;13.60;10.25;;;;;;;17.46;72.31;97057.06;5042696;28;20102;-81
2023/10/22 00:57:01;;;;;;;13.23;9.70;;;;;;;17.51;71.85;97060.44;5043771;28;20087;-80
2023/10/22 00:59:46;;;;;;;12.18;9.05;;;;;;;17.41;71.90;97074.63;5042272;28;20040;-82
2023/10/22 01:02:30;;;;;;;13.75;8.50;;;;;;;16.83;72.57;97071.13;5047085;28;20051;-82
2023/10/22 01:05:14;;;;;;;9.60;7.30;;;;;;;16.63;73.36;97068.72;5047116;28;20040;-82
2023/10/22 01:07:58;;;;;;;8.82;7.53;;;;;;;16.52;72.71;97068.03;5044273;28;20048;-81
2023/10/22 01:10:42;;;;;;;8.23;6.13;;;;;;;16.68;72.91;97061.47;5052950;28;20067;-81
2023/10/22 01:13:27;;;;;;;9.63;6.13;;;;;;;17.11;71.29;97073.19;5041425;28;20079;-80
2023/10/22 01:16:11;;;;;;;6.70;5.57;;;;;;;16.63;72.35;97079.31;5045908;28;20048;-81
2023/10/22 01:18:55;;;;;;;8.38;5.70;;;;;;;16.45;72.56;97065.72;5040181;28;20119;-82
2023/10/22 01:21:39;;;;;;;6.55;4.93;;;;;;;16.57;72.81;97086.50;5052668;28;20044;-82
2023/10/22 01:24:23;;;;;;;7.90;5.25;;;;;;;17.19;71.58;97088.44;5046275;28;20048;-82
2023/10/22 01:27:07;;;;;;;6.55;4.75;;;;;;;16.97;71.41;97088.94;5041882;28;20036;-81
2023/10/22 01:29:51;;;;;;;6.22;4.28;;;;;;;17.53;70.70;97098.06;5042299;28;20102;-81
2023/10/22 01:32:35;;;;;;;6.53;5.22;;;;;;;17.41;70.59;97090.53;5038697;28;20138;-81
2023/10/22 01:35:19;;;;;;;6.72;5.43;;;;;;;17.44;70.22;97101.66;5042473;28;20056;-82
2023/10/22 01:38:04;;;;;;;7.00;5.32;;;;;;;16.83;71.80;97112.72;5040409;28;20064;-82
2023/10/22 01:40:48;;;;;;;7.28;5.47;;;;;;;16.65;72.27;97109.72;5045404;28;20036;-81
2023/10/22 01:43:32;;;;;;;8.52;4.72;;;;;;;16.29;72.81;97120.66;5038245;28;20044;-83
2023/10/22 01:46:16;;;;;;;5.32;4.47;;;;;;;16.34;72.01;97118.00;5041914;28;20080;-81
2023/10/22 01:49:00;;;;;;;5.85;3.90;;;;;;;16.61;71.95;97106.06;5041938;28;20098;-82
2023/10/22 01:51:44;;;;;;;6.38;3.63;;;;;;;16.28;72.57;97127.03;5042356;28;20036;-82
2023/10/22 01:54:28;;;;;;;6.22;3.50;;;;;;;16.52;71.72;97129.72;5043975;28;20116;-82
2023/10/22 01:57:12;;;;;;;7.40;3.97;;;;;;;16.38;72.02;97134.91;5036695;28;20442;-82
2023/10/22 01:59:56;;;;;;;7.53;3.85;;;;;;;16.40;71.82;97129.31;5045215;28;20518;-81
2023/10/22 02:02:40;;;;;;;8.45;3.88;;;;;;;16.31;72.21;97126.50;5043854;28;20044;-81
2023/10/22 02:05:24;;;;;;;4.07;3.20;;;;;;;16.25;72.26;97139.00;5045633;28;20048;-81
2023/10/22 02:08:09;;;;;;;6.60;4.13;;;;;;;16.04;72.27;97143.66;5037002;28;20044;-81
2023/10/22 02:10:53;;;;;;;7.13;5.60;;;;;;;16.09;72.67;97154.19;5039553;28;20386;-80
2023/10/22 02:13:37;;;;;;;8.20;5.50;;;;;;;16.21;72.15;97145.91;5044492;28;20115;-81
2023/10/22 02:16:23;;;;;;;7.80;4.90;;;;;;;16.25;71.80;97148.78;5038378;28;20040;-80
2023/10/22 02:19:10;;;;;;;6.15;4.88;;;;;;;16.45;71.90;97160.25;5044234;28;20037;-80
2023/10/22 02:21:54;;;;;;;10.68;5.22;;;;;;;16.60;71.70;97170.69;5040546;28;20466;-81
2023/10/22 02:24:39;;;;;;;7.25;4.65;;;;;;;16.83;71.26;97153.25;5045173;28;20044;-80
2023/10/22 02:27:23;;;;;;;6.50;4.68;;;;;;;16.69;71.46;97157.63;5043622;28;20106;-80
2023/10/22 02:30:08;;;;;;;7.05;5.65;;;;;;;16.67;71.59;97165.09;5041566;28;20040;-80
2023/10/22 02:32:52;;;;;;;6.85;5.05;;;;;;;16.75;71.66;97176.94;5038079;28;20040;-80
2023/10/22 02:35:43;;;;;;;7.80;4.85;;;;;;;16.85;71.84;97171.50;5042621;28;20133;-80
2023/10/22 02:38:28;;;;;;;7.90;4.90;;;;;;;16.64;71.66;97179.66;5043551;28;20095;-81
2023/10/22 02:41:12;;;;;;;6.47;4.53;;;;;;;17.04;71.63;97181.41;5043137;28;20473;-81
2023/10/22 02:43:58;;;;;;;8.73;5.03;;;;;;;16.52;71.76;97168.69;5042419;28;20099;-80
2023/10/22 02:46:42;;;;;;;5.93;4.10;;;;;;;16.35;72.48;97198.19;5040581;28;20048;-82
2023/10/22 02:49:26;;;;;;;6.32;3.90;;;;;;;16.48;72.10;97199.41;5044608;28;20048;-80
2023/10/22 02:52:10;;;;;;;4.15;3.58;;;;;;;16.58;72.02;97201.97;5043342;28;20502;-80
2023/10/22 02:54:54;;;;;;;5.38;3.25;;;;;;;16.73;72.09;97213.50;5043186;28;20043;-81
2023/10/22 02:57:39;;;;;;;4.63;3.58;;;;;;;16.97;71.91;97206.38;5045316;28;20102;-80
2023/10/22 03:00:23;;;;;;;4.05;3.35;;;;;;;17.24;71.27;97220.94;5042196;28;20446;-82
2023/10/22 03:03:07;;;;;;;6.72;3.53;;;;;;;17.25;71.36;97227.81;5039073;28;20564;-81
2023/10/22 03:05:51;;;;;;;5.55;3.05;;;;;;;17.37;71.12;97208.84;5041469;28;20538;-81
2023/10/22 03:08:36;;;;;;;4.45;3.22;;;;;;;17.40;70.95;97212.81;5039937;28;20518;-81
2023/10/22 03:11:20;;;;;;;3.00;2.40;;;;;;;16.81;71.71;97224.28;5044084;28;20112;-82
2023/10/22 03:14:05;;;;;;;3.22;2.42;;;;;;;16.52;72.21;97226.94;5045660;28;20047;-80
2023/10/22 03:16:49;;;;;;;2.95;2.63;;;;;;;16.38;71.81;97227.56;5045759;28;20044;-82
2023/10/22 03:19:32;;;;;;;4.13;2.72;;;;;;;16.53;71.39;97228.53;5042779;28;20040;-79
2023/10/22 03:22:17;;;;;;;6.85;2.90;;;;;;;16.07;71.38;97209.25;5048869;28;20095;-81
2023/10/22 03:25:01;;;;;;;4.07;2.50;;;;;;;15.97;71.62;97235.78;5045005;28;20044;-82
2023/10/22 03:27:45;;;;;;;3.70;2.80;;;;;;;15.76;72.08;97227.16;5045951;28;20086;-82
2023/10/22 03:30:29;;;;;;;5.32;2.70;;;;;;;15.63;71.96;97236.47;5041961;28;20059;-82
2023/10/22 03:33:13;;;;;;;6.00;3.40;;;;;;;15.57;72.52;97246.28;5046555;28;20044;-81
2023/10/22 03:35:58;;;;;;;5.88;3.35;;;;;;;15.72;72.56;97253.34;5042343;28;20044;-82
2023/10/22 03:38:43;;;;;;;4.65;3.70;;;;;;;15.77;72.44;97261.28;5043920;28;20102;-80
2023/10/22 03:41:28;;;;;;;5.45;3.60;;;;;;;15.79;72.56;97258.34;5048048;28;20098;-82
2023/10/22 03:44:11;;;;;;;5.00;3.92;;;;;;;15.99;72.76;97260.13;5045940;28;20052;-82
2023/10/22 03:46:55;;;;;;;7.25;4.25;;;;;;;15.87;73.18;97264.91;5041616;28;20187;-81
2023/10/22 03:49:40;;;;;;;4.47;3.58;;;;;;;15.80;73.18;97273.94;5044017;28;20530;-83
2023/10/22 03:52:23;;;;;;;4.07;3.63;;;;;;;16.02;72.52;97272.81;5042987;28;20095;-81
2023/10/22 03:55:07;;;;;;;4.65;3.47;;;;;;;16.10;73.11;97285.44;5046534;28;20091;-82
2023/10/22 03:57:51;;;;;;;8.93;5.43;;;;;;;15.76;73.23;97287.97;5050746;28;20399;-82
2023/10/22 04:00:35;;;;;;;5.82;4.35;;;;;;;16.13;73.01;97294.72;5042204;28;20040;-81
2023/10/22 04:03:19;;;;;;;12.98;7.45;;;;;;;16.21;72.63;97293.34;5049197;28;20555;-81
2023/10/22 04:06:03;;;;;;;8.95;6.65;;;;;;;16.05;72.90;97290.78;5049836;28;20088;-81
2023/10/22 04:08:48;;;;;;;12.93;5.82;;;;;;;16.22;72.67;97308.97;5045491;28;20044;-81
2023/10/22 04:11:32;;;;;;;6.95;5.32;;;;;;;16.27;72.63;97292.22;5040217;28;20044;-81
2023/10/22 04:14:17;;;;;;;6.10;4.60;;;;;;;16.34;72.94;97300.69;5046678;28;20048;-82
2023/10/22 04:17:01;;;;;;;7.20;4.53;;;;;;;16.01;73.81;97302.19;5042589;28;20440;-79
2023/10/22 04:19:44;;;;;;;4.22;3.60;;;;;;;16.25;73.32;97313.72;5041138;28;20171;-80
2023/10/22 04:22:28;;;;;;;5.97;4.00;;;;;;;16.28;73.44;97307.84;5041845;28;20067;-82
2023/10/22 04:25:13;;;;;;;6.18;4.20;;;;;;;15.93;73.77;97314.91;5041716;28;20040;-81
2023/10/22 04:27:57;;;;;;;5.85;3.95;;;;;;;16.17;72.76;97310.84;5047474;28;20048;-82
2023/10/22 04:30:43;;;;;;;6.97;4.20;;;;;;;16.21;73.12;97310.03;5048152;28;20039;-82
2023/10/22 04:33:27;;;;;;;7.53;3.53;;;;;;;16.04;73.50;97313.00;5045124;28;20086;-83
2023/10/22 04:36:16;;;;;;;4.68;3.10;;;;;;;16.35;72.27;97312.84;5040745;28;20522;-82
2023/10/22 04:39:00;;;;;;;4.28;3.13;;;;;;;15.90;73.21;97323.41;5042371;28;20063;-81
2023/10/22 04:41:44;;;;;;;6.50;3.80;;;;;;;16.31;72.80;97322.41;5043283;28;20044;-79
2023/10/22 04:44:28;;;;;;;7.95;4.55;;;;;;;16.28;72.67;97328.22;5040056;28;20044;-81
2023/10/22 04:47:12;;;;;;;6.55;4.20;;;;;;;15.94;73.52;97336.91;5039708;28;20048;-81
2023/10/22 04:49:55;;;;;;;7.10;4.20;;;;;;;15.97;73.31;97337.13;5046125;28;20051;-81
2023/10/22 04:52:39;;;;;;;6.72;4.20;;;;;;;15.98;73.21;97351.16;5043094;28;20045;-81
2023/10/22 04:55:23;;;;;;;4.88;4.20;;;;;;;16.08;72.78;97347.69;5043514;28;20096;-82
2023/10/22 04:58:08;;;;;;;5.22;4.40;;;;;;;16.34;72.56;97339.59;5043600;28;20120;-82
2023/10/22 05:00:52;;;;;;;8.63;5.00;;;;;;;16.30;72.50;97365.03;5041567;28;20115;-81
2023/10/22 05:03:36;;;;;;;10.15;5.68;;;;;;;16.40;72.73;97362.31;5043047;28;20063;-81
2023/10/22 05:06:20;;;;;;;6.57;5.40;;;;;;;16.23;71.99;97357.38;5039815;28;20057;-82
2023/10/22 05:09:04;;;;;;;8.65;5.60;;;;;;;16.01;72.88;97355.91;5039566;28;20060;-81
2023/10/22 05:11:48;;;;;;;7.72;5.28;;;;;;;15.94;72.86;97366.00;5045889;28;20036;-80
2023/10/22 05:14:31;;;;;;;12.65;4.70;;;;;;;15.84;73.66;97372.88;5049154;28;20091;-81
2023/10/22 05:17:15;;;;;;;7.43;4.65;;;;;;;15.81;73.61;97373.41;5043944;28;20048;-81
2023/10/22 05:20:00;;;;;;;9.98;4.85;;;;;;;15.55;73.73;97373.50;5048626;28;20047;-82
2023/10/22 05:22:44;;;;;;;5.22;4.53;;;;;;;15.89;73.55;97389.81;5043524;28;20044;-82
2023/10/22 05:25:28;;;;;;;9.30;4.45;;;;;;;15.85;73.69;97382.38;5043847;28;20095;-81
2023/10/22 05:28:12;;;;;;;7.30;4.03;;;;;;;15.87;73.86;97381.31;5042041;28;20126;-81
2023/10/22 05:30:56;;;;;;;4.80;4.05;;;;;;;16.29;73.28;97385.41;5044251;28;20113;-81
2023/10/22 05:33:43;;;;;;;4.97;3.97;;;;;;;16.45;72.92;97411.81;5038788;28;20063;-82
2023/10/22 05:36:27;;;;;;;5.88;3.35;;;;;;;16.63;72.48;97413.84;5042271;28;20094;-81
2023/10/22 05:39:11;;;;;;;4.25;2.72;;;;;;;16.57;71.69;97409.63;5041240;28;20071;-80
2023/10/22 05:41:55;;;;;;;5.97;3.25;;;;;;;16.85;70.96;97407.34;5040590;28;20102;-80
2023/10/22 05:44:39;;;;;;;9.25;4.43;;;;;;;16.73;71.19;97412.19;5041587;28;20045;-81
2023/10/22 05:47:23;;;;;;;8.00;3.38;;;;;;;16.44;71.80;97420.81;5042066;28;20041;-81
2023/10/22 05:50:07;;;;;;;4.18;2.70;;;;;;;16.63;71.56;97431.59;5043278;28;20506;-82
2023/10/22 05:52:51;;;;;;;6.72;3.13;;;;;;;16.52;71.86;97438.81;5042072;28;20049;-82
2023/10/22 05:55:36;;;;;;;5.88;3.55;;;;;;;16.77;71.63;97439.72;5048695;28;20462;-81
2023/10/22 05:58:20;;;;;;;4.03;3.70;;;;;;;16.84;71.46;97450.81;5042990;28;20040;-81
2023/10/22 06:01:04;;;;;;;3.97;3.50;;;;;;;16.51;71.49;97442.53;5043442;28;20403;-81
2023/10/22 06:03:48;;;;;;;5.22;3.92;;;;;;;16.68;71.34;97453.53;5044248;28;20130;-81
2023/10/22 06:06:32;;;;;;;6.95;4.43;;;;;;;16.68;71.15;97458.84;5043516;28;20036;-80
2023/10/22 06:09:16;;;;;;;5.60;3.63;;;;;;;16.64;70.94;97471.03;5037952;28;20094;-80
2023/10/22 06:12:00;;;;;;;5.93;4.13;;;;;;;16.64;71.22;97467.63;5043565;28;20052;-81
2023/10/22 06:14:44;;;;;;;6.70;4.40;;;;;;;16.60;71.31;97477.16;5044345;28;20096;-81
2023/10/22 06:17:28;;;;;;;8.45;3.80;;;;;;;16.33;71.87;97479.13;5046780;28;20035;-81
2023/10/22 06:20:13;;;;;;;5.68;3.58;;;;;;;16.39;71.70;97475.41;5042552;28;20415;-79
2023/10/22 06:22:57;;;;;;;8.23;3.35;;;;;;;16.64;71.65;97472.91;5045131;28;20043;-80
2023/10/22 06:25:44;;;;;;;4.85;3.08;;;;;;;16.62;71.81;97481.13;5040430;28;20041;-80
2023/10/22 06:28:28;;;;;;;5.55;2.67;;;;;;;16.59;71.60;97491.47;5047658;28;20101;-80
2023/10/22 06:31:13;;;;;;;5.40;2.63;;;;;;;16.58;71.12;97485.38;5043371;28;20103;-81
2023/10/22 06:33:56;;;;;;;2.45;2.25;;;;;;;16.09;71.42;97463.84;5034405;28;20502;-81
2023/10/22 06:36:40;;;;;;;3.30;2.70;;;;;;;16.22;71.62;97483.69;5041103;28;20040;-80
2023/10/22 06:39:25;;;;;;;6.80;3.17;;;;;;;15.84;72.16;97494.56;5041704;28;20511;-80
2023/10/22 06:42:09;;;;;;;6.88;2.65;;;;;;;15.94;71.74;97499.09;5036546;28;20168;-81
2023/10/22 06:44:53;;;;;;;4.15;2.17;;;;;;;16.69;70.51;97509.97;5046408;28;20525;-81
2023/10/22 06:47:37;;;;;;;6.40;2.85;;;;;;;16.64;70.52;97513.44;5046166;28;20043;-81
2023/10/22 06:50:21;;;;;;;6.07;2.60;;;;;;;16.45;70.65;97523.84;5045660;28;20043;-84
2023/10/22 06:53:05;;;;;;;7.82;2.50;;;;;;;16.52;70.47;97512.97;5046637;28;20048;-84
2023/10/22 06:55:49;;;;;;;4.43;2.42;;;;;;;16.35;70.36;97534.47;5051436;28;20098;-85
2023/10/22 06:58:34;;;;;;;4.00;2.50;;;;;;;16.31;70.62;97528.13;5051944;28;20044;-83
2023/10/22 07:01:18;;;;;;;4.68;2.60;;;;;;;16.21;70.96;97532.41;5046774;28;20047;-82
2023/10/22 07:04:01;;;;;;;5.53;2.67;;;;;;;16.11;70.97;97535.84;5044599;28;20090;-83
2023/10/22 07:06:45;;;;;;;3.45;2.55;;;;;;;15.98;71.32;97536.41;5045763;28;20071;-81
2023/10/22 07:09:29;;;;;;;4.93;2.90;;;;;;;16.06;71.37;97549.06;5039607;28;20533;-81
2023/10/22 07:12:15;;;;;;;4.63;2.70;;;;;;;16.23;71.11;97558.59;5041448;28;20140;-81
2023/10/22 07:14:59;;;;;;;5.28;3.10;;;;;;;16.18;71.45;97562.03;5039558;28;20032;-80
2023/10/22 07:17:43;;;;;;;6.05;2.80;;;;;;;16.33;71.44;97563.06;5042667;28;20465;-81
2023/10/22 07:20:27;;;;;;;5.13;2.42;;;;;;;16.38;71.13;97569.16;5047668;28;20087;-81
2023/10/22 07:23:12;;;;;;;4.05;2.90;;;;;;;16.46;71.03;97561.69;5041988;28;20064;-81
2023/10/22 07:25:58;;;;;;;5.15;2.70;;;;;;;15.95;71.88;97563.41;5040696;28;20120;-81
2023/10/22 07:28:44;;;;;;;6.47;2.65;;;;;;;16.16;71.44;97568.66;5043797;28;20418;-81
2023/10/22 07:31:29;;;;;;;4.60;2.50;;;;;;;16.39;71.44;97573.38;5041145;28;20426;-81
2023/10/22 07:34:12;;;;;;;7.40;2.63;;;;;;;16.59;70.55;97573.56;5040787;28;20260;-80
2023/10/22 07:36:56;;;;;;;3.58;2.17;;;;;;;16.32;71.26;97609.94;5044791;28;20459;-81
2023/10/22 07:39:40;;;;;;;6.32;2.97;;;;;;;16.26;71.09;97606.50;5043358;28;20482;-83
2023/10/22 07:42:24;;;;;;;4.57;2.53;;;;;;;16.30;71.10;97606.75;5043420;28;20458;-85
2023/10/22 07:45:09;;;;;;;5.88;2.35;;;;;;;16.58;70.60;97570.16;5046442;28;20090;-84
2023/10/22 07:47:53;;;;;;;5.75;2.75;;;;;;;17.03;69.95;97598.63;5041983;28;20083;-84
2023/10/22 07:50:37;;;;;;;5.18;2.67;;;;;;;17.11;69.25;97606.03;5047375;28;20075;-85
2023/10/22 07:53:21;;;;;;;6.45;2.88;;;;;;;17.18;69.05;97617.09;5042438;28;20124;-85
2023/10/22 07:56:06;;;;;;;5.40;3.13;;;;;;;17.24;69.30;97620.53;5041935;28;20402;-81
2023/10/22 07:58:50;;;;;;;5.53;3.15;;;;;;;16.61;70.50;97629.75;5040209;28;20063;-83
2023/10/22 08:01:34;;;;;;;4.97;3.00;;;;;;;16.93;69.49;97616.13;5040897;28;20047;-83
2023/10/22 08:04:18;;;;;;;5.80;3.15;;;;;;;16.78;69.77;97618.84;5037191;28;20191;-86
2023/10/22 08:07:03;;;;;;;5.63;3.60;;;;;;;17.10;69.38;97599.13;5041770;28;22101;-81
2023/10/22 08:09:47;;;;;;;16.05;3.15;;;;;;;17.02;69.44;97628.84;5040259;28;20075;-80
2023/10/22 08:12:32;;;;;;;10.65;5.20;;;;;;;17.37;69.02;97627.09;5041684;28;20076;-82
2023/10/22 08:15:17;;;;;;;6.22;2.90;;;;;;;17.22;69.12;97636.72;5038939;28;20497;-79
2023/10/22 08:18:02;;;;;;;3.13;2.50;;;;;;;16.95;69.59;97637.84;5043809;28;20048;-82
2023/10/22 08:20:47;;;;;;;5.07;3.10;;;;;;;17.17;69.72;97639.38;5045559;28;20040;-83
2023/10/22 08:23:31;;;;;;;5.55;2.30;;;;;;;17.02;69.82;97653.50;5041514;28;20506;-79
2023/10/22 08:26:15;;;;;;;7.10;2.08;;;;;;;17.27;69.38;97639.31;5040516;28;20040;-80
2023/10/22 08:28:59;;;;;;;6.07;2.45;;;;;;;17.61;69.18;97652.94;5039075;28;20094;-83
2023/10/22 08:31:43;;;;;;;13.63;3.28;;;;;;;17.34;69.64;97664.78;5053364;28;20515;-83
2023/10/22 08:34:27;;;;;;;4.28;2.20;;;;;;;17.40;69.66;97642.44;5050699;28;20086;-84
2023/10/22 08:37:11;;;;;;;7.10;2.20;;;;;;;17.24;69.86;97658.44;5038335;28;20043;-80
2023/10/22 08:39:55;;;;;;;8.13;2.85;;;;;;;17.34;69.37;97659.47;5039650;28;20526;-80
2023/10/22 08:42:39;;;;;;;8.32;2.08;;;;;;;17.37;69.04;97645.66;5037988;28;20044;-79
2023/10/22 08:45:24;;;;;;;7.65;2.30;;;;;;;17.80;68.41;97659.19;5041604;28;20072;-78
2023/10/22 08:48:08;;;;;;;3.17;1.88;;;;;;;17.77;68.33;97661.59;5040997;28;20048;-79
2023/10/22 08:50:53;;;;;;;3.90;1.95;;;;;;;17.55;69.02;97676.84;5046165;28;20051;-78
2023/10/22 08:53:39;;;;;;;5.00;2.63;;;;;;;17.41;69.06;97681.16;5036822;28;20088;-78
2023/10/22 08:56:24;;;;;;;6.28;2.00;;;;;;;17.69;68.31;97686.88;5037447;28;20169;-83
2023/10/22 08:59:08;;;;;;;3.35;1.80;;;;;;;17.58;68.89;97691.41;5039732;28;20041;-80
2023/10/22 09:01:53;;;;;;;4.13;2.08;;;;;;;17.60;68.98;97699.13;5040509;28;20096;-79
2023/10/22 09:04:38;;;;;;;6.95;2.20;;;;;;;17.45;69.41;97702.66;5035639;28;20102;-78
2023/10/22 09:07:51;;;;;;;6.90;2.30;;;;;;;16.89;70.40;97707.81;5040409;28;20129;-80
2023/10/22 09:10:36;;;;;;;6.00;2.45;;;;;;;16.91;69.78;97699.63;5040621;28;20086;-79
2023/10/22 09:13:22;;;;;;;8.07;2.05;;;;;;;16.77;70.06;97707.34;5039546;28;20044;-79
2023/10/22 09:16:07;;;;;;;3.63;1.80;;;;;;;17.06;69.87;97722.66;5041992;28;20040;-79
2023/10/22 09:18:52;;;;;;;5.90;2.03;;;;;;;17.44;69.03;97715.09;5039408;28;20036;-78
2023/10/22 09:21:43;;;;;;;5.13;2.20;;;;;;;17.47;68.69;97733.13;5038212;28;20044;-78
2023/10/22 09:24:27;;;;;;;4.05;2.70;;;;;;;17.50;69.25;97721.19;5043373;28;20497;-79
2023/10/22 09:27:11;;;;;;;4.72;3.20;;;;;;;17.68;69.29;97741.78;5042239;28;20048;-78
2023/10/22 09:29:58;;;;;;;6.40;3.25;;;;;;;17.83;68.22;97743.56;5045555;28;20501;-79
2023/10/22 09:32:46;;;;;;;7.10;2.63;;;;;;;17.24;69.34;97724.72;5045535;28;20052;-78
2023/10/22 09:35:30;;;;;;;4.50;2.15;;;;;;;17.59;68.57;97745.28;5037955;28;20044;-80
2023/10/22 09:38:15;;;;;;;7.13;2.10;;;;;;;18.24;67.99;97755.03;5039213;28;20052;-78
2023/10/22 09:40:59;;;;;;;4.10;2.33;;;;;;;17.47;68.25;97749.03;5036601;28;20064;-80
2023/10/22 09:43:43;;;;;;;7.65;2.20;;;;;;;17.59;67.71;97754.06;5038210;28;20040;-80
2023/10/22 09:46:35;;;;;;;3.40;2.00;;;;;;;17.46;67.80;97751.97;5043085;28;20090;-81
2023/10/22 09:49:21;;;;;;;4.07;2.05;;;;;;;17.70;67.26;97749.50;5044061;28;20090;-80
2023/10/22 09:52:08;;;;;;;8.10;2.40;;;;;;;17.48;67.74;97753.28;5041021;28;20048;-79
2023/10/22 09:54:54;;;;;;;3.50;1.40;;;;;;;17.51;67.81;97762.56;5037323;28;20578;-78
2023/10/22 09:57:40;;;;;;;4.53;1.85;;;;;;;17.75;67.36;97757.44;5040853;28;20040;-79
2023/10/22 10:00:26;;;;;;;4.43;1.98;;;;;;;18.44;66.78;97758.59;5041271;28;20095;-81
2023/10/22 10:03:10;;;;;;;8.00;1.90;;;;;;;18.31;67.46;97770.66;5042270;28;20041;-79
2023/10/22 10:05:55;;;;;;;2.60;1.70;;;;;;;17.92;67.20;97764.25;5038787;28;20407;-79
2023/10/22 10:08:39;;;;;;;2.50;1.92;;;;;;;18.01;66.92;97772.44;5040601;28;20506;-80
2023/10/22 10:11:24;;;;;;;4.50;1.50;;;;;;;17.88;66.63;97776.44;5039667;28;20094;-79
2023/10/22 10:14:13;;;;;;;4.05;1.50;;;;;;;18.05;66.61;97784.09;5038049;28;20108;-78
2023/10/22 10:17:03;;;;;;;2.45;1.85;;;;;;;18.38;65.61;97795.84;5037724;28;20036;-79
2023/10/22 10:19:47;;;;;;;3.35;1.63;;;;;;;18.09;65.51;97798.41;5042010;28;20091;-79
2023/10/22 10:22:43;;;;;;;6.65;1.80;;;;;;;18.35;65.42;97793.75;5044753;28;20040;-80
2023/10/22 10:25:34;;;;;;;4.38;1.90;;;;;;;18.31;65.60;97797.22;5046014;28;20040;-79
2023/10/22 10:28:39;;;;;;;4.95;1.80;;;;;;;18.30;64.26;97801.75;5045236;28;20406;-80
2023/10/22 10:31:32;;;;;;;4.32;1.75;;;;;;;18.13;64.82;97807.41;5042365;28;20047;-79
2023/10/22 10:34:36;;;;;;;4.38;1.58;;;;;;;18.25;65.00;97813.19;5045927;28;20119;-79
2023/10/22 10:37:22;;;;;;;5.38;2.42;;;;;;;18.23;64.93;97801.25;5042077;28;20117;-80
2023/10/22 10:40:07;;;;;;;2.05;1.60;;;;;;;18.44;63.85;97817.06;5042636;28;20051;-80
2023/10/22 10:42:51;;;;;;;7.25;1.60;;;;;;;18.68;62.93;97831.25;5041257;28;20171;-80
2023/10/22 10:45:41;;;;;;;4.30;1.60;;;;;;;19.21;62.89;97828.97;5046823;28;20188;-80
2023/10/22 10:48:47;;;;;;;2.80;1.77;;;;;;;19.05;63.21;97842.41;5047495;28;20400;-80
2023/10/22 10:51:31;;;;;;;4.68;2.10;;;;;;;18.81;63.35;97837.78;5042121;28;20072;-79
2023/10/22 10:54:17;;;;;;;1.90;1.58;;;;;;;18.61;63.14;97841.38;5044165;28;20091;-79
2023/10/22 10:57:01;;;;;;;6.00;1.50;;;;;;;19.03;62.15;97830.44;5049437;28;20043;-80
2023/10/22 10:59:45;;;;;;;2.60;1.33;;;;;;;18.87;62.06;97837.75;5041449;28;20045;-80
2023/10/22 11:02:38;;;;;;;2.10;1.55;;;;;;;18.78;62.65;97850.84;5040443;28;20041;-80
2023/10/22 11:05:39;;;;;;;2.92;1.70;;;;;;;19.06;61.09;97843.19;5044457;28;20125;-79
2023/10/22 11:08:25;;;;;;;3.03;1.38;;;;;;;19.32;60.39;97850.94;5044825;28;20571;-79
2023/10/22 11:11:15;;;;;;;2.42;1.40;;;;;;;18.94;59.86;97862.94;5049298;28;20098;-80
2023/10/22 11:14:12;;;;;;;2.45;1.30;;;;;;;18.89;59.66;97847.03;5041697;28;20102;-79
2023/10/22 11:16:57;;;;;;;4.15;1.40;;;;;;;19.28;59.33;97850.69;5041342;28;20099;-79
2023/10/22 11:19:41;;;;;;;8.63;1.88;;;;;;;18.95;59.26;97853.88;5038490;28;20135;-78
2023/10/22 11:22:26;;;;;;;2.97;1.38;;;;;;;19.15;59.65;97861.97;5040497;28;20533;-79
2023/10/22 11:25:10;;;;;;;2.53;1.38;;;;;;;18.94;59.74;97862.94;5043613;28;20502;-79
2023/10/22 11:27:55;;;;;;;5.22;1.40;;;;;;;18.87;60.12;97859.81;5041970;28;20044;-80
2023/10/22 11:30:41;;;;;;;3.78;1.50;;;;;;;18.80;60.57;97861.97;5038281;28;20095;-79
2023/10/22 11:33:31;;;;;;;3.72;1.30;;;;;;;18.56;61.63;97874.09;5039475;28;20035;-79
2023/10/22 11:36:17;;;;;;;2.63;1.50;;;;;;;18.95;61.09;97864.53;5035562;28;20113;-79
2023/10/22 11:39:01;;;;;;;2.15;1.42;;;;;;;19.14;60.46;97855.88;5041466;28;20183;-79
2023/10/22 11:41:46;;;;;;;4.95;1.52;;;;;;;19.32;60.87;97862.34;5043688;28;20072;-80
2023/10/22 11:44:33;;;;;;;9.35;2.80;;;;;;;19.49;60.85;97871.78;5041301;28;20040;-79
2023/10/22 11:47:33;;;;;;;5.47;1.98;;;;;;;19.57;61.04;97876.50;5043217;28;20128;-79
2023/10/22 11:50:17;;;;;;;3.35;1.70;;;;;;;19.98;60.57;97877.94;5044727;28;20032;-80
2023/10/22 11:53:00;;;;;;;2.88;1.55;;;;;;;19.79;60.94;97869.88;5043131;28;20134;-80
2023/10/22 11:55:48;;;;;;;3.05;1.67;;;;;;;19.80;60.74;97882.09;5046325;28;20056;-79
2023/10/22 11:58:33;;;;;;;2.55;1.45;;;;;;;19.78;60.38;97887.72;5041927;28;20100;-79
2023/10/22 12:01:18;;;;;;;2.60;1.60;;;;;;;20.15;60.64;97882.78;5037694;28;20588;-79
2023/10/22 12:04:03;;;;;;;5.00;1.40;;;;;;;20.65;59.24;97879.72;5044737;28;20411;-78
2023/10/22 12:06:47;;;;;;;5.25;1.67;;;;;;;21.00;58.42;97884.00;5044028;28;20535;-79
2023/10/22 12:09:31;;;;;;;3.75;1.90;;;;;;;20.58;57.56;97895.25;5040241;28;20052;-79
2023/10/22 12:12:15;;;;;;;3.85;1.58;;;;;;;20.79;59.00;97900.28;5040638;28;20388;-79
2023/10/22 12:15:00;;;;;;;4.85;2.25;;;;;;;20.39;57.91;97906.72;5045557;28;20075;-79
2023/10/22 12:17:44;;;;;;;2.58;1.30;;;;;;;20.29;57.71;97903.38;5041709;28;20403;-79
2023/10/22 12:20:28;;;;;;;3.83;1.60;;;;;;;20.21;58.02;97902.16;5042749;28;20040;-78
2023/10/22 12:23:12;;;;;;;2.50;1.60;;;;;;;20.20;57.64;97913.88;5037829;28;20059;-80
2023/10/22 12:25:56;;;;;;;2.25;1.48;;;;;;;19.95;58.06;97913.13;5039243;28;20056;-78
2023/10/22 12:28:40;;;;;;;4.03;1.40;;;;;;;20.02;56.72;97907.44;5040465;28;20059;-79
2023/10/22 12:31:24;;;;;;;4.88;1.60;;;;;;;20.11;56.72;97919.84;5044130;28;20094;-79
2023/10/22 12:34:08;;;;;;;2.40;1.30;;;;;;;19.89;56.16;97916.91;5041431;28;20043;-80
2023/10/22 12:36:52;;;;;;;3.42;1.50;;;;;;;19.60;56.69;97912.38;5042919;28;20040;-79
2023/10/22 12:39:36;;;;;;;3.10;1.35;;;;;;;20.06;56.69;97922.59;5043388;28;20060;-79
2023/10/22 12:42:20;;;;;;;4.60;1.65;;;;;;;20.16;56.99;97921.69;5039597;28;20395;-79
2023/10/22 12:45:05;;;;;;;2.47;1.23;;;;;;;20.36;56.64;97909.94;5043213;28;20044;-80
2023/10/22 12:47:50;;;;;;;7.13;2.22;;;;;;;20.40;55.83;97921.63;5043377;28;20045;-79
2023/10/22 12:50:34;;;;;;;4.15;1.60;;;;;;;19.62;55.96;97903.06;5041550;28;20087;-78
2023/10/22 12:53:18;;;;;;;3.63;1.40;;;;;;;20.14;55.15;97934.47;5042129;28;20048;-79
2023/10/22 12:56:02;;;;;;;1.48;1.30;;;;;;;20.02;54.58;97929.53;5042837;28;20040;-78